createdAt,value
2023-05-18T00:00:56.106Z,42.85
2023-05-18T00:01:56.081Z,42.87
2023-05-18T00:02:56.264Z,42.85
2023-05-18T00:03:56.255Z,42.84
2023-05-18T00:04:56.173Z,42.83
2023-05-18T00:05:56.106Z,42.80
2023-05-18T00:06:56.174Z,42.77
2023-05-18T00:07:56.184Z,42.82
2023-05-18T00:08:56.179Z,42.82
2023-05-18T00:09:56.205Z,42.83
2023-05-18T00:10:56.207Z,42.80
2023-05-18T00:11:56.196Z,42.80
2023-05-18T00:12:56.222Z,42.79
2023-05-18T00:13:56.231Z,42.80
2023-05-18T00:14:56.278Z,42.80
2023-05-18T00:15:56.307Z,42.80
2023-05-18T00:16:56.261Z,42.79
2023-05-18T00:17:56.309Z,42.77
2023-05-18T00:18:56.310Z,42.79
2023-05-18T00:19:56.329Z,42.78
2023-05-18T00:20:56.382Z,42.81
2023-05-18T00:21:56.343Z,42.78
2023-05-18T00:22:56.347Z,42.74
2023-05-18T00:23:56.382Z,42.76
2023-05-18T00:24:56.603Z,42.76
2023-05-18T00:25:56.399Z,42.73
2023-05-18T00:26:56.393Z,42.74
2023-05-18T00:27:56.418Z,42.72
2023-05-18T00:28:56.452Z,42.72
2023-05-18T00:29:56.477Z,42.73
2023-05-18T00:30:56.489Z,42.72
2023-05-18T00:31:56.620Z,42.73
2023-05-18T00:32:56.527Z,42.72
2023-05-18T00:33:56.558Z,42.73
2023-05-18T00:34:56.570Z,42.71
2023-05-18T00:35:56.577Z,42.70
2023-05-18T00:36:56.548Z,42.70
2023-05-18T00:37:56.565Z,42.72
2023-05-18T00:38:56.622Z,42.71
2023-05-18T00:39:56.654Z,42.71
2023-05-18T00:40:56.660Z,42.71
2023-05-18T00:41:56.685Z,42.69
2023-05-18T00:42:56.719Z,42.71
2023-05-18T00:43:56.722Z,42.71
2023-05-18T00:44:56.747Z,42.67
2023-05-18T00:45:56.761Z,42.67
2023-05-18T00:46:56.758Z,42.67
2023-05-18T00:47:56.829Z,42.68
2023-05-18T00:48:56.821Z,42.64
2023-05-18T00:49:56.832Z,42.67
2023-05-18T00:50:56.830Z,42.68
2023-05-18T00:51:56.847Z,42.67
2023-05-18T00:52:56.901Z,42.66
2023-05-18T00:53:56.903Z,42.63
2023-05-18T00:54:57.138Z,42.64
2023-05-18T00:55:56.909Z,42.63
2023-05-18T00:56:56.978Z,42.63
2023-05-18T00:57:57.030Z,42.65
2023-05-18T00:58:57.018Z,42.65
2023-05-18T00:59:57.001Z,42.64
2023-05-18T01:00:57.122Z,42.64
2023-05-18T01:01:57.089Z,42.58
2023-05-18T01:02:57.187Z,42.62
2023-05-18T01:03:57.074Z,42.62
2023-05-18T01:04:57.135Z,42.63
2023-05-18T01:05:57.147Z,42.60
2023-05-18T01:06:57.150Z,42.58
2023-05-18T01:07:57.219Z,42.59
2023-05-18T01:08:57.213Z,42.56
2023-05-18T01:09:57.623Z,42.57
2023-05-18T01:10:57.252Z,42.55
2023-05-18T01:11:57.241Z,42.58
2023-05-18T01:12:57.310Z,42.56
2023-05-18T01:13:57.304Z,42.58
2023-05-18T01:14:57.305Z,42.58
2023-05-18T01:15:57.369Z,42.58
2023-05-18T01:16:57.415Z,42.55
2023-05-18T01:17:57.421Z,42.56
2023-05-18T01:18:57.479Z,42.55
2023-05-18T01:19:57.443Z,42.55
2023-05-18T01:20:57.453Z,42.51
2023-05-18T01:21:57.471Z,42.52
2023-05-18T01:22:57.487Z,42.54
2023-05-18T01:23:57.525Z,42.53
2023-05-18T01:24:57.581Z,42.53
2023-05-18T01:25:57.542Z,42.54
2023-05-18T01:26:57.621Z,42.50
2023-05-18T01:27:57.605Z,42.50
2023-05-18T01:28:57.601Z,42.53
2023-05-18T01:29:57.661Z,42.50
2023-05-18T01:30:57.717Z,42.52
2023-05-18T01:31:57.654Z,42.53
2023-05-18T01:32:57.749Z,42.51
2023-05-18T01:33:57.695Z,42.50
2023-05-18T01:34:57.730Z,42.46
2023-05-18T01:35:57.707Z,42.46
2023-05-18T01:36:57.765Z,42.48
2023-05-18T01:37:57.768Z,42.50
2023-05-18T01:38:57.824Z,42.48
2023-05-18T01:39:58.150Z,42.49
2023-05-18T01:40:57.825Z,42.49
2023-05-18T01:41:57.877Z,42.45
2023-05-18T01:42:57.852Z,42.44
2023-05-18T01:43:57.913Z,42.44
2023-05-18T01:44:57.915Z,42.45
2023-05-18T01:45:58.006Z,42.46
2023-05-18T01:46:57.958Z,42.47
2023-05-18T01:47:58.018Z,42.44
2023-05-18T01:48:58.041Z,42.42
2023-05-18T01:49:58.063Z,42.42
2023-05-18T01:50:58.082Z,42.45
2023-05-18T01:51:58.097Z,42.43
2023-05-18T01:52:58.165Z,42.43
2023-05-18T01:53:58.137Z,42.41
2023-05-18T01:54:58.173Z,42.41
2023-05-18T01:55:58.198Z,42.40
2023-05-18T01:56:58.224Z,42.42
2023-05-18T01:57:58.236Z,42.41
2023-05-18T01:58:58.248Z,42.41
2023-05-18T01:59:58.625Z,42.40
2023-05-18T02:00:58.288Z,42.37
2023-05-18T02:01:59.262Z,42.38
2023-05-18T02:02:58.433Z,42.39
2023-05-18T02:03:58.515Z,42.38
2023-05-18T02:04:58.679Z,42.38
2023-05-18T02:05:58.432Z,42.39
2023-05-18T02:06:58.475Z,42.39
2023-05-18T02:07:58.490Z,42.40
2023-05-18T02:08:58.516Z,42.39
2023-05-18T02:09:58.676Z,42.38
2023-05-18T02:10:58.539Z,42.38
2023-05-18T02:11:58.599Z,42.39
2023-05-18T02:12:58.614Z,42.36
2023-05-18T02:13:58.662Z,42.35
2023-05-18T02:14:59.159Z,42.36
2023-05-18T02:15:58.708Z,42.37
2023-05-18T02:16:58.726Z,42.33
2023-05-18T02:17:58.808Z,42.35
2023-05-18T02:18:58.820Z,42.32
2023-05-18T02:19:58.867Z,42.34
2023-05-18T02:20:58.802Z,42.31
2023-05-18T02:21:58.843Z,42.31
2023-05-18T02:22:58.913Z,42.32
2023-05-18T02:23:58.927Z,42.31
2023-05-18T02:24:59.011Z,42.34
2023-05-18T02:25:59.114Z,42.32
2023-05-18T02:26:58.991Z,42.31
2023-05-18T02:27:58.994Z,42.30
2023-05-18T02:28:59.045Z,42.31
2023-05-18T02:29:59.124Z,42.29
2023-05-18T02:30:59.128Z,42.30
2023-05-18T02:31:59.220Z,42.30
2023-05-18T02:32:59.180Z,42.29
2023-05-18T02:33:59.181Z,42.33
2023-05-18T02:34:59.302Z,42.30
2023-05-18T02:35:59.248Z,42.30
2023-05-18T02:36:59.278Z,42.29
2023-05-18T02:37:59.321Z,42.26
2023-05-18T02:38:59.335Z,42.29
2023-05-18T02:39:59.348Z,42.29
2023-05-18T02:40:59.401Z,42.29
2023-05-18T02:41:59.435Z,42.29
2023-05-18T02:42:59.515Z,42.29
2023-05-18T02:43:59.500Z,42.26
2023-05-18T02:44:59.666Z,42.27
2023-05-18T02:45:59.564Z,42.26
2023-05-18T02:46:59.577Z,42.27
2023-05-18T02:47:59.734Z,42.26
2023-05-18T02:48:59.671Z,42.25
2023-05-18T02:49:59.667Z,42.28
2023-05-18T02:50:59.684Z,42.26
2023-05-18T02:51:59.728Z,42.26
2023-05-18T02:52:59.716Z,42.26
2023-05-18T02:53:59.765Z,42.25
2023-05-18T02:54:59.817Z,42.25
2023-05-18T02:55:59.816Z,42.24
2023-05-18T02:56:59.841Z,42.25
2023-05-18T02:57:59.854Z,42.25
2023-05-18T02:58:59.997Z,42.25
2023-05-18T02:59:59.927Z,42.23
2023-05-18T03:00:59.987Z,42.24
2023-05-18T03:02:00.075Z,42.22
2023-05-18T03:03:00.055Z,42.21
2023-05-18T03:04:00.044Z,42.23
2023-05-18T03:05:00.214Z,42.21
2023-05-18T03:06:00.091Z,42.20
2023-05-18T03:07:00.129Z,42.19
2023-05-18T03:08:00.164Z,42.20
2023-05-18T03:09:00.215Z,42.19
2023-05-18T03:10:00.224Z,42.20
2023-05-18T03:11:00.245Z,42.16
2023-05-18T03:12:00.258Z,42.19
2023-05-18T03:13:00.305Z,42.18
2023-05-18T03:14:00.334Z,42.21
2023-05-18T03:15:00.382Z,42.19
2023-05-18T03:16:00.413Z,42.18
2023-05-18T03:17:00.534Z,42.21
2023-05-18T03:18:00.507Z,42.19
2023-05-18T03:19:00.512Z,42.16
2023-05-18T03:20:00.596Z,42.18
2023-05-18T03:21:00.548Z,42.19
2023-05-18T03:22:00.603Z,42.18
2023-05-18T03:23:00.611Z,42.18
2023-05-18T03:24:00.641Z,42.18
2023-05-18T03:25:00.717Z,42.18
2023-05-18T03:26:00.744Z,42.15
2023-05-18T03:27:00.801Z,42.17
2023-05-18T03:28:00.786Z,42.16
2023-05-18T03:29:00.862Z,42.16
2023-05-18T03:30:00.861Z,42.17
2023-05-18T03:31:00.965Z,42.16
2023-05-18T03:32:00.952Z,42.16
2023-05-18T03:33:01.035Z,42.15
2023-05-18T03:34:01.002Z,42.16
2023-05-18T03:35:01.080Z,42.15
2023-05-18T03:36:01.097Z,42.14
2023-05-18T03:37:01.130Z,42.11
2023-05-18T03:38:01.173Z,42.14
2023-05-18T03:39:01.179Z,42.14
2023-05-18T03:40:01.245Z,42.11
2023-05-18T03:41:01.248Z,42.12
2023-05-18T03:42:01.298Z,42.10
2023-05-18T03:43:01.312Z,42.09
2023-05-18T03:44:01.322Z,42.11
2023-05-18T03:45:01.421Z,42.14
2023-05-18T03:46:01.466Z,42.13
2023-05-18T03:47:01.471Z,42.13
2023-05-18T03:48:01.493Z,42.12
2023-05-18T03:49:01.499Z,42.10
2023-05-18T03:50:01.538Z,42.14
2023-05-18T03:51:01.582Z,42.11
2023-05-18T03:52:01.582Z,42.08
2023-05-18T03:53:01.638Z,42.08
2023-05-18T03:54:01.703Z,42.09
2023-05-18T03:55:02.218Z,42.09
2023-05-18T03:56:01.762Z,42.09
2023-05-18T03:57:01.797Z,42.12
2023-05-18T03:58:01.817Z,42.07
2023-05-18T03:59:01.899Z,42.10
2023-05-18T04:00:01.888Z,42.08
2023-05-18T04:01:01.936Z,42.06
2023-05-18T04:02:01.957Z,42.04
2023-05-18T04:03:02.067Z,42.05
2023-05-18T04:04:02.062Z,42.06
2023-05-18T04:05:02.082Z,42.08
2023-05-18T04:06:02.105Z,42.06
2023-05-18T04:07:02.155Z,42.06
2023-05-18T04:08:02.199Z,42.03
2023-05-18T04:09:02.209Z,42.03
2023-05-18T04:10:02.699Z,42.04
2023-05-18T04:11:02.260Z,42.05
2023-05-18T04:12:02.303Z,42.07
2023-05-18T04:13:02.390Z,42.06
2023-05-18T04:14:02.405Z,42.05
2023-05-18T04:15:02.764Z,42.07
2023-05-18T04:16:02.498Z,42.05
2023-05-18T04:17:02.507Z,42.04
2023-05-18T04:18:02.606Z,42.02
2023-05-18T04:19:03.088Z,42.05
2023-05-18T04:20:02.714Z,42.03
2023-05-18T04:21:02.655Z,42.03
2023-05-18T04:22:02.674Z,42.01
2023-05-18T04:23:02.719Z,41.99
2023-05-18T04:24:02.797Z,42.02
2023-05-18T04:25:02.781Z,42.00
2023-05-18T04:26:02.826Z,42.01
2023-05-18T04:27:02.938Z,42.01
2023-05-18T04:28:02.898Z,42.01
2023-05-18T04:29:02.939Z,42.00
2023-05-18T04:30:02.950Z,42.02
2023-05-18T04:31:03.014Z,41.99
2023-05-18T04:32:03.099Z,41.99
2023-05-18T04:33:03.096Z,41.98
2023-05-18T04:34:03.070Z,41.98
2023-05-18T04:35:03.131Z,41.95
2023-05-18T04:36:03.204Z,41.95
2023-05-18T04:37:03.179Z,41.92
2023-05-18T04:38:03.198Z,41.94
2023-05-18T04:39:03.259Z,41.95
2023-05-18T04:40:03.741Z,41.92
2023-05-18T04:41:03.334Z,41.93
2023-05-18T04:42:03.376Z,41.96
2023-05-18T04:43:03.480Z,41.90
2023-05-18T04:44:03.457Z,41.90
2023-05-18T04:45:03.707Z,41.95
2023-05-18T04:46:03.622Z,41.90
2023-05-18T04:47:03.596Z,41.92
2023-05-18T04:48:03.623Z,41.90
2023-05-18T04:49:03.705Z,41.92
2023-05-18T04:50:03.739Z,41.94
2023-05-18T04:51:03.761Z,41.91
2023-05-18T04:52:03.781Z,41.94
2023-05-18T04:53:03.796Z,41.92
2023-05-18T04:54:03.950Z,41.91
2023-05-18T04:55:04.230Z,41.89
2023-05-18T04:56:03.938Z,41.90
2023-05-18T04:57:03.990Z,41.91
2023-05-18T04:58:04.005Z,41.89
2023-05-18T04:59:04.039Z,41.89
2023-05-18T05:00:04.224Z,41.90
2023-05-18T05:01:04.213Z,41.89
2023-05-18T05:02:04.161Z,41.89
2023-05-18T05:03:04.287Z,41.92
2023-05-18T05:04:04.245Z,41.90
2023-05-18T05:05:04.730Z,41.90
2023-05-18T05:06:04.331Z,41.88
2023-05-18T05:07:04.372Z,41.85
2023-05-18T05:08:04.432Z,41.86
2023-05-18T05:09:04.440Z,41.84
2023-05-18T05:10:04.721Z,41.88
2023-05-18T05:11:04.557Z,41.87
2023-05-18T05:12:04.609Z,41.81
2023-05-18T05:13:04.637Z,41.86
2023-05-18T05:14:04.644Z,41.86
2023-05-18T05:15:04.679Z,41.84
2023-05-18T05:16:04.802Z,41.85
2023-05-18T05:17:04.771Z,41.84
2023-05-18T05:18:04.893Z,41.87
2023-05-18T05:19:04.849Z,41.82
2023-05-18T05:20:05.223Z,41.85
2023-05-18T05:21:04.964Z,41.84
2023-05-18T05:22:04.980Z,41.83
2023-05-18T05:23:05.038Z,41.83
2023-05-18T05:24:05.107Z,41.79
2023-05-18T05:25:06.187Z,41.83
2023-05-18T05:26:05.165Z,41.80
2023-05-18T05:27:05.173Z,41.80
2023-05-18T05:28:05.220Z,41.78
2023-05-18T05:29:05.229Z,41.78
2023-05-18T05:30:05.298Z,41.80
2023-05-18T05:31:05.377Z,41.76
2023-05-18T05:32:05.455Z,41.76
2023-05-18T05:33:05.428Z,41.77
2023-05-18T05:34:05.466Z,41.75
2023-05-18T05:35:05.485Z,41.77
2023-05-18T05:36:05.552Z,41.74
2023-05-18T05:37:05.596Z,41.71
2023-05-18T05:38:05.615Z,41.74
2023-05-18T05:39:05.670Z,41.71
2023-05-18T05:40:05.765Z,41.73
2023-05-18T05:41:05.732Z,41.69
2023-05-18T05:42:05.774Z,41.70
2023-05-18T05:43:05.810Z,41.70
2023-05-18T05:44:05.882Z,41.68
2023-05-18T05:45:05.892Z,41.67
2023-05-18T05:46:05.913Z,41.67
2023-05-18T05:47:06.042Z,41.69
2023-05-18T05:48:06.024Z,41.67
2023-05-18T05:49:06.039Z,41.66
2023-05-18T05:50:06.258Z,41.64
2023-05-18T05:51:06.134Z,41.62
2023-05-18T05:52:06.187Z,41.64
2023-05-18T05:53:06.370Z,41.61
2023-05-18T05:54:06.896Z,41.60
2023-05-18T05:55:06.297Z,41.62
2023-05-18T05:56:06.342Z,41.63
2023-05-18T05:57:06.404Z,41.59
2023-05-18T05:58:06.452Z,41.59
2023-05-18T05:59:06.530Z,41.56
2023-05-18T06:00:06.781Z,41.55
2023-05-18T06:01:06.606Z,41.55
2023-05-18T06:02:06.647Z,41.56
2023-05-18T06:03:06.781Z,41.53
2023-05-18T06:04:06.756Z,41.54
2023-05-18T06:05:06.772Z,41.57
2023-05-18T06:06:06.751Z,41.57
2023-05-18T06:07:06.782Z,41.58
2023-05-18T06:08:06.790Z,41.58
2023-05-18T06:09:06.832Z,41.57
2023-05-18T06:10:07.257Z,41.54
2023-05-18T06:11:07.773Z,41.50
2023-05-18T06:12:06.965Z,41.52
2023-05-18T06:13:07.001Z,41.52
2023-05-18T06:14:07.028Z,41.53
2023-05-18T06:15:07.279Z,41.52
2023-05-18T06:16:07.105Z,41.50
2023-05-18T06:17:07.161Z,41.49
2023-05-18T06:18:07.215Z,41.47
2023-05-18T06:19:07.230Z,41.48
2023-05-18T06:20:07.791Z,41.52
2023-05-18T06:21:07.273Z,41.47
2023-05-18T06:22:07.290Z,41.47
2023-05-18T06:23:07.362Z,41.46
2023-05-18T06:24:07.450Z,41.49
2023-05-18T06:25:07.433Z,41.46
2023-05-18T06:26:07.428Z,41.43
2023-05-18T06:27:07.512Z,41.42
2023-05-18T06:28:07.555Z,41.40
2023-05-18T06:29:07.548Z,41.38
2023-05-18T06:30:07.552Z,41.35
2023-05-18T06:31:07.628Z,41.39
2023-05-18T06:32:07.723Z,41.38
2023-05-18T06:33:07.748Z,41.37
2023-05-18T06:34:07.829Z,41.35
2023-05-18T06:35:08.283Z,41.34
2023-05-18T06:36:07.798Z,41.34
2023-05-18T06:37:07.801Z,41.34
2023-05-18T06:38:07.864Z,41.34
2023-05-18T06:39:07.873Z,41.32
2023-05-18T06:40:07.927Z,41.30
2023-05-18T06:41:07.939Z,41.29
2023-05-18T06:42:08.009Z,41.27
2023-05-18T06:43:08.773Z,41.28
2023-05-18T06:44:08.066Z,41.29
2023-05-18T06:45:08.112Z,41.27
2023-05-18T06:46:08.174Z,41.30
2023-05-18T06:47:08.156Z,41.27
2023-05-18T06:48:08.219Z,41.25
2023-05-18T06:49:08.201Z,41.26
2023-05-18T06:50:08.243Z,41.26
2023-05-18T06:51:08.251Z,41.24
2023-05-18T06:52:08.288Z,41.20
2023-05-18T06:53:08.342Z,41.18
2023-05-18T06:54:08.345Z,41.20
2023-05-18T06:55:08.410Z,41.21
2023-05-18T06:56:08.444Z,41.20
2023-05-18T06:57:08.488Z,41.19
2023-05-18T06:58:08.476Z,41.16
2023-05-18T06:59:08.542Z,41.15
2023-05-18T07:00:08.822Z,41.17
2023-05-18T07:01:08.643Z,41.20
2023-05-18T07:02:08.613Z,41.13
2023-05-18T07:03:08.738Z,41.11
2023-05-18T07:04:08.702Z,41.13
2023-05-18T07:05:08.844Z,41.10
2023-05-18T07:06:08.679Z,41.11
2023-05-18T07:07:08.706Z,41.08
2023-05-18T07:08:08.796Z,41.09
2023-05-18T07:09:08.769Z,41.10
2023-05-18T07:10:09.294Z,41.10
2023-05-18T07:11:08.793Z,41.07
2023-05-18T07:12:08.840Z,41.04
2023-05-18T07:13:08.869Z,41.06
2023-05-18T07:14:08.882Z,41.07
2023-05-18T07:15:09.302Z,41.04
2023-05-18T07:16:08.985Z,41.08
2023-05-18T07:17:09.016Z,41.04
2023-05-18T07:18:09.052Z,41.02
2023-05-18T07:19:09.074Z,41.03
2023-05-18T07:20:09.055Z,41.01
2023-05-18T07:21:09.079Z,41.03
2023-05-18T07:22:09.103Z,41.01
2023-05-18T07:23:09.105Z,41.02
2023-05-18T07:24:09.105Z,41.02
2023-05-18T07:25:09.331Z,41.05
2023-05-18T07:26:09.203Z,41.00
2023-05-18T07:27:09.185Z,40.98
2023-05-18T07:28:09.224Z,40.99
2023-05-18T07:29:09.266Z,40.97
2023-05-18T07:30:09.863Z,40.98
2023-05-18T07:31:09.384Z,40.95
2023-05-18T07:32:09.343Z,40.98
2023-05-18T07:33:09.391Z,41.00
2023-05-18T07:34:09.338Z,40.98
2023-05-18T07:35:09.770Z,40.97
2023-05-18T07:36:09.388Z,40.98
2023-05-18T07:37:09.408Z,40.98
2023-05-18T07:38:09.438Z,41.00
2023-05-18T07:39:09.475Z,41.01
2023-05-18T07:40:09.816Z,40.98
2023-05-18T07:41:09.499Z,40.93
2023-05-18T07:42:09.564Z,40.94
2023-05-18T07:43:09.611Z,40.98
2023-05-18T07:44:09.563Z,40.96
2023-05-18T07:45:09.783Z,40.93
2023-05-18T07:46:09.617Z,40.88
2023-05-18T07:47:09.695Z,40.87
2023-05-18T07:48:09.727Z,40.90
2023-05-18T07:49:09.655Z,40.92
2023-05-18T07:50:09.815Z,40.87
2023-05-18T07:51:09.683Z,40.88
2023-05-18T07:52:09.743Z,40.86
2023-05-18T07:53:09.720Z,40.83
2023-05-18T07:54:09.746Z,40.84
2023-05-18T07:55:09.828Z,40.80
2023-05-18T07:56:09.788Z,40.78
2023-05-18T07:57:09.803Z,40.82
2023-05-18T07:58:09.871Z,40.80
2023-05-18T07:59:09.869Z,40.82
2023-05-18T08:00:09.841Z,40.77
2023-05-18T08:01:09.859Z,40.73
2023-05-18T08:02:09.933Z,40.76
2023-05-18T08:03:10.014Z,40.75
2023-05-18T08:04:10.034Z,40.73
2023-05-18T08:05:09.960Z,40.73
2023-05-18T08:06:09.972Z,40.78
2023-05-18T08:07:09.969Z,40.76
2023-05-18T08:08:10.041Z,40.76
2023-05-18T08:09:10.023Z,40.79
2023-05-18T08:10:10.035Z,40.80
2023-05-18T08:11:10.107Z,40.81
2023-05-18T08:12:10.179Z,40.81
2023-05-18T08:13:10.129Z,40.78
2023-05-18T08:14:10.125Z,40.79
2023-05-18T08:15:10.184Z,40.75
2023-05-18T08:16:12.171Z,40.72
2023-05-18T08:17:10.226Z,40.73
2023-05-18T08:18:10.243Z,40.66
2023-05-18T08:19:10.218Z,40.66
2023-05-18T08:20:10.218Z,40.64
2023-05-18T08:21:10.422Z,40.59
2023-05-18T08:22:10.249Z,40.54
2023-05-18T08:23:10.295Z,40.58
2023-05-18T08:24:10.256Z,40.57
2023-05-18T08:25:10.322Z,40.64
2023-05-18T08:26:12.488Z,40.65
2023-05-18T08:27:10.291Z,40.62
2023-05-18T08:28:10.327Z,40.61
2023-05-18T08:29:10.419Z,40.62
2023-05-18T08:30:10.285Z,40.62
2023-05-18T08:31:10.281Z,40.65
2023-05-18T08:32:10.337Z,40.66
2023-05-18T08:33:10.292Z,40.62
2023-05-18T08:34:10.269Z,40.62
2023-05-18T08:35:10.274Z,40.60
2023-05-18T08:36:10.789Z,40.61
2023-05-18T08:37:10.207Z,40.62
2023-05-18T08:38:10.240Z,40.61
2023-05-18T08:39:10.218Z,40.61
2023-05-18T08:40:10.338Z,40.58
2023-05-18T08:41:10.206Z,40.61
2023-05-18T08:42:10.155Z,40.56
2023-05-18T08:43:10.180Z,40.57
2023-05-18T08:44:10.195Z,40.56
2023-05-18T08:45:10.339Z,40.53
2023-05-18T08:46:10.175Z,40.56
2023-05-18T08:47:10.177Z,40.53
2023-05-18T08:48:10.277Z,40.53
2023-05-18T08:49:10.263Z,40.55
2023-05-18T08:50:10.122Z,40.54
2023-05-18T08:51:10.183Z,40.53
2023-05-18T08:52:10.126Z,40.51
2023-05-18T08:53:10.126Z,40.50
2023-05-18T08:54:10.136Z,40.51
2023-05-18T08:55:12.184Z,40.52
2023-05-18T08:56:10.123Z,40.56
2023-05-18T08:57:10.146Z,40.53
2023-05-18T08:58:10.132Z,40.56
2023-05-18T08:59:10.053Z,40.57
2023-05-18T09:00:10.081Z,40.54
2023-05-18T09:01:10.135Z,40.56
2023-05-18T09:02:10.109Z,40.54
2023-05-18T09:03:10.127Z,40.54
2023-05-18T09:04:10.087Z,40.53
2023-05-18T09:05:10.156Z,40.52
2023-05-18T09:06:10.097Z,40.52
2023-05-18T09:07:10.108Z,40.45
2023-05-18T09:08:10.118Z,40.45
2023-05-18T09:09:10.135Z,40.44
2023-05-18T09:10:10.196Z,40.39
2023-05-18T09:11:10.203Z,40.41
2023-05-18T09:12:10.213Z,40.44
2023-05-18T09:13:10.231Z,40.40
2023-05-18T09:14:10.229Z,40.40
2023-05-18T09:15:10.236Z,40.37
2023-05-18T09:16:10.283Z,40.37
2023-05-18T09:17:10.257Z,40.40
2023-05-18T09:18:10.303Z,40.43
2023-05-18T09:19:10.333Z,40.38
2023-05-18T09:20:10.389Z,40.39
2023-05-18T09:21:10.293Z,40.41
2023-05-18T09:22:10.334Z,40.39
2023-05-18T09:23:10.341Z,40.44
2023-05-18T09:24:10.322Z,40.41
2023-05-18T09:25:10.419Z,40.42
2023-05-18T09:26:10.349Z,40.41
2023-05-18T09:27:10.572Z,40.40
2023-05-18T09:28:10.416Z,40.38
2023-05-18T09:29:10.392Z,40.39
2023-05-18T09:30:10.834Z,40.37
2023-05-18T09:31:10.481Z,40.33
2023-05-18T09:32:10.473Z,40.36
2023-05-18T09:33:10.533Z,40.33
2023-05-18T09:34:10.474Z,40.34
2023-05-18T09:35:10.472Z,40.33
2023-05-18T09:36:10.482Z,40.24
2023-05-18T09:37:10.524Z,40.27
2023-05-18T09:38:10.486Z,40.28
2023-05-18T09:39:10.573Z,40.29
2023-05-18T09:40:10.537Z,40.31
2023-05-18T09:41:10.514Z,40.30
2023-05-18T09:42:10.539Z,40.35
2023-05-18T09:43:10.575Z,40.35
2023-05-18T09:44:10.598Z,40.36
2023-05-18T09:45:10.807Z,40.34
2023-05-18T09:46:10.664Z,40.33
2023-05-18T09:47:10.709Z,40.33
2023-05-18T09:48:10.672Z,40.31
2023-05-18T09:49:10.665Z,40.36
2023-05-18T09:50:10.670Z,40.36
2023-05-18T09:51:10.682Z,40.33
2023-05-18T09:52:10.663Z,40.31
2023-05-18T09:53:10.697Z,40.31
2023-05-18T09:54:10.732Z,40.30
2023-05-18T09:55:10.713Z,40.28
2023-05-18T09:56:10.769Z,40.29
2023-05-18T09:57:11.463Z,40.31
2023-05-18T09:58:10.775Z,40.32
2023-05-18T09:59:10.778Z,40.33
2023-05-18T10:00:10.875Z,40.32
2023-05-18T10:01:10.873Z,40.30
2023-05-18T10:02:10.804Z,40.27
2023-05-18T10:03:10.815Z,40.22
2023-05-18T10:04:10.929Z,40.25
2023-05-18T10:05:10.853Z,40.26
2023-05-18T10:06:10.893Z,40.25
2023-05-18T10:07:10.911Z,40.24
2023-05-18T10:08:10.896Z,40.24
2023-05-18T10:09:10.903Z,40.25
2023-05-18T10:10:10.967Z,40.22
2023-05-18T10:11:10.946Z,40.22
2023-05-18T10:12:10.978Z,40.24
2023-05-18T10:13:10.938Z,40.27
2023-05-18T10:14:10.967Z,40.22
2023-05-18T10:15:11.005Z,40.28
2023-05-18T10:16:11.001Z,40.27
2023-05-18T10:17:15.629Z,40.24
2023-05-18T10:18:12.147Z,40.25
2023-05-18T10:19:11.073Z,40.20
2023-05-18T10:20:11.038Z,40.21
2023-05-18T10:21:11.022Z,40.26
2023-05-18T10:22:10.970Z,40.21
2023-05-18T10:23:11.018Z,40.25
2023-05-18T10:24:10.988Z,40.23
2023-05-18T10:25:10.973Z,40.22
2023-05-18T10:26:10.975Z,40.22
2023-05-18T10:27:10.939Z,40.20
2023-05-18T10:28:10.959Z,40.26
2023-05-18T10:29:10.951Z,40.22
2023-05-18T10:30:10.933Z,40.17
2023-05-18T10:31:10.997Z,40.24
2023-05-18T10:32:10.949Z,40.23
2023-05-18T10:33:20.585Z,40.18
2023-05-18T10:34:11.892Z,40.23
2023-05-18T10:35:10.888Z,40.28
2023-05-18T10:36:10.870Z,40.25
2023-05-18T10:37:11.943Z,40.19
2023-05-18T10:38:10.896Z,40.16
2023-05-18T10:39:10.885Z,40.16
2023-05-18T10:40:10.865Z,40.16
2023-05-18T10:41:10.824Z,40.16
2023-05-18T10:42:10.841Z,40.15
2023-05-18T10:43:10.910Z,40.15
2023-05-18T10:44:10.822Z,40.10
2023-05-18T10:45:10.821Z,40.09
2023-05-18T10:46:10.861Z,40.13
2023-05-18T10:47:10.863Z,40.14
2023-05-18T10:48:10.875Z,40.14
2023-05-18T10:49:10.835Z,40.14
2023-05-18T10:50:10.790Z,40.14
2023-05-18T10:51:11.369Z,40.04
2023-05-18T10:52:10.773Z,40.02
2023-05-18T10:53:10.742Z,40.06
2023-05-18T10:54:10.737Z,40.08
2023-05-18T10:55:10.753Z,40.07
2023-05-18T10:56:10.924Z,40.08
2023-05-18T10:57:10.736Z,40.12
2023-05-18T10:58:10.744Z,40.13
2023-05-18T10:59:10.763Z,40.12
2023-05-18T11:00:10.925Z,40.03
2023-05-18T11:01:10.769Z,39.97
2023-05-18T11:02:10.850Z,39.96
2023-05-18T11:03:10.782Z,40.02
2023-05-18T11:04:10.719Z,39.99
2023-05-18T11:05:10.782Z,40.02
2023-05-18T11:06:10.774Z,40.02
2023-05-18T11:07:10.732Z,40.01
2023-05-18T11:08:10.818Z,40.01
2023-05-18T11:09:10.815Z,39.99
2023-05-18T11:10:10.980Z,39.97
2023-05-18T11:11:10.842Z,40.02
2023-05-18T11:12:10.841Z,40.00
2023-05-18T11:13:10.849Z,39.98
2023-05-18T11:14:10.854Z,40.03
2023-05-18T11:15:10.870Z,40.01
2023-05-18T11:16:10.963Z,40.07
2023-05-18T11:17:10.889Z,40.03
2023-05-18T11:18:10.911Z,40.00
2023-05-18T11:19:10.976Z,40.02
2023-05-18T11:20:10.899Z,40.00
2023-05-18T11:21:10.959Z,40.00
2023-05-18T11:22:10.936Z,39.98
2023-05-18T11:23:10.984Z,39.93
2023-05-18T11:24:10.951Z,39.86
2023-05-18T11:25:10.965Z,39.77
2023-05-18T11:26:10.969Z,39.80
2023-05-18T11:27:11.004Z,39.79
2023-05-18T11:28:11.018Z,39.72
2023-05-18T11:29:11.061Z,39.77
2023-05-18T11:31:11.092Z,39.70
2023-05-18T11:32:16.019Z,39.66
2023-05-18T11:33:12.139Z,39.65
2023-05-18T11:34:10.993Z,39.66
2023-05-18T11:35:11.024Z,39.67
2023-05-18T11:36:11.436Z,39.61
2023-05-18T11:37:11.021Z,39.56
2023-05-18T11:38:10.954Z,39.64
2023-05-18T11:39:10.981Z,39.66
2023-05-18T11:40:11.443Z,39.63
2023-05-18T11:41:10.960Z,39.62
2023-05-18T11:42:10.945Z,39.66
2023-05-18T11:43:10.958Z,39.66
2023-05-18T11:44:10.965Z,39.61
2023-05-18T11:45:10.888Z,39.61
2023-05-18T11:46:10.897Z,39.69
2023-05-18T11:47:10.946Z,39.61
2023-05-18T11:48:10.991Z,39.62
2023-05-18T11:49:10.925Z,39.61
2023-05-18T11:50:10.900Z,39.66
2023-05-18T11:51:10.888Z,39.72
2023-05-18T11:52:10.880Z,39.72
2023-05-18T11:53:10.880Z,39.73
2023-05-18T11:54:10.875Z,39.70
2023-05-18T11:55:10.845Z,39.70
2023-05-18T11:56:10.897Z,39.72
2023-05-18T11:57:11.198Z,39.71
2023-05-18T11:58:10.851Z,39.71
2023-05-18T11:59:10.832Z,39.68
2023-05-18T12:00:10.803Z,39.70
2023-05-18T12:01:10.817Z,39.66
2023-05-18T12:02:10.867Z,39.65
2023-05-18T12:03:10.851Z,39.64
2023-05-18T12:04:10.905Z,39.58
2023-05-18T12:05:10.830Z,39.54
2023-05-18T12:06:10.805Z,39.50
2023-05-18T12:07:10.826Z,39.50
2023-05-18T12:08:10.820Z,39.54
2023-05-18T12:09:10.812Z,39.52
2023-05-18T12:10:10.820Z,39.52
2023-05-18T12:11:10.833Z,39.59
2023-05-18T12:12:10.877Z,39.58
2023-05-18T12:13:10.870Z,39.60
2023-05-18T12:14:10.836Z,39.62
2023-05-18T12:15:10.846Z,39.64
2023-05-18T12:16:10.869Z,39.60
2023-05-18T12:17:10.980Z,39.62
2023-05-18T12:18:11.060Z,39.61
2023-05-18T12:19:10.950Z,39.59
2023-05-18T12:20:10.936Z,39.62
2023-05-18T12:21:11.411Z,39.62
2023-05-18T12:22:10.893Z,39.63
2023-05-18T12:23:10.940Z,39.64
2023-05-18T12:24:10.968Z,39.61
2023-05-18T12:25:11.017Z,39.60
2023-05-18T12:26:10.976Z,39.61
2023-05-18T12:27:10.999Z,39.56
2023-05-18T12:28:10.985Z,39.54
2023-05-18T12:29:11.024Z,39.58
2023-05-18T12:30:11.088Z,39.57
2023-05-18T12:31:11.043Z,39.57
2023-05-18T12:32:11.032Z,39.57
2023-05-18T12:33:11.094Z,39.56
2023-05-18T12:34:11.053Z,39.58
2023-05-18T12:35:11.036Z,39.58
2023-05-18T12:36:11.020Z,39.60
2023-05-18T12:37:11.063Z,39.60
2023-05-18T12:38:11.091Z,39.60
2023-05-18T12:39:11.119Z,39.62
2023-05-18T12:40:11.108Z,39.62
2023-05-18T12:41:11.115Z,39.59
2023-05-18T12:42:11.113Z,39.59
2023-05-18T12:43:11.151Z,39.61
2023-05-18T12:44:11.166Z,39.61
2023-05-18T12:45:11.388Z,39.61
2023-05-18T12:46:11.232Z,39.62
2023-05-18T12:47:11.203Z,39.62
2023-05-18T12:48:11.302Z,39.62
2023-05-18T12:49:11.189Z,39.59
2023-05-18T12:50:11.189Z,39.61
2023-05-18T12:51:11.278Z,39.58
2023-05-18T12:52:11.255Z,39.56
2023-05-18T12:53:11.247Z,39.56
2023-05-18T12:54:11.187Z,39.59